sensor_id;sensor_type;location;lat;lon;timestamp;P1;durP1;ratioP1;P2;durP2;ratioP2
77168;SDS011;66281;45.114;20.730;2023-12-20T00:04:04;20.42;;;9.93;;
77168;SDS011;66281;45.114;20.730;2023-12-20T00:14:05;15.07;;;8.87;;
77168;SDS011;66281;45.114;20.730;2023-12-20T00:24:07;21.37;;;11.17;;
77168;SDS011;66281;45.114;20.730;2023-12-20T00:34:08;22.52;;;10.25;;
77168;SDS011;66281;45.114;20.730;2023-12-20T00:44:10;15.23;;;8.70;;
77168;SDS011;66281;45.114;20.730;2023-12-20T00:54:11;14.17;;;7.40;;
77168;SDS011;66281;45.114;20.730;2023-12-20T01:04:12;17.90;;;10.45;;
77168;SDS011;66281;45.114;20.730;2023-12-20T01:14:14;15.07;;;9.10;;
77168;SDS011;66281;45.114;20.730;2023-12-20T01:24:15;13.07;;;7.93;;
77168;SDS011;66281;45.114;20.730;2023-12-20T01:34:17;14.37;;;8.63;;
77168;SDS011;66281;45.114;20.730;2023-12-20T01:44:18;14.25;;;7.72;;
77168;SDS011;66281;45.114;20.730;2023-12-20T01:54:20;16.33;;;9.60;;
77168;SDS011;66281;45.114;20.730;2023-12-20T02:04:21;18.00;;;11.03;;
77168;SDS011;66281;45.114;20.730;2023-12-20T02:14:23;21.55;;;11.10;;
77168;SDS011;66281;45.114;20.730;2023-12-20T02:24:24;15.80;;;10.10;;
77168;SDS011;66281;45.114;20.730;2023-12-20T02:34:25;20.93;;;12.00;;
77168;SDS011;66281;45.114;20.730;2023-12-20T02:44:28;29.67;;;14.32;;
77168;SDS011;66281;45.114;20.730;2023-12-20T02:54:29;24.33;;;14.07;;
77168;SDS011;66281;45.114;20.730;2023-12-20T03:04:31;18.83;;;10.27;;
77168;SDS011;66281;45.114;20.730;2023-12-20T03:14:32;20.43;;;11.87;;
77168;SDS011;66281;45.114;20.730;2023-12-20T03:24:33;25.17;;;13.60;;
77168;SDS011;66281;45.114;20.730;2023-12-20T03:34:35;22.63;;;11.43;;
77168;SDS011;66281;45.114;20.730;2023-12-20T03:44:38;21.40;;;11.90;;
77168;SDS011;66281;45.114;20.730;2023-12-20T03:54:40;18.58;;;11.40;;
77168;SDS011;66281;45.114;20.730;2023-12-20T04:04:43;17.17;;;10.83;;
77168;SDS011;66281;45.114;20.730;2023-12-20T04:14:44;17.53;;;10.33;;
77168;SDS011;66281;45.114;20.730;2023-12-20T04:24:46;20.27;;;11.15;;
77168;SDS011;66281;45.114;20.730;2023-12-20T04:34:47;19.75;;;10.65;;
77168;SDS011;66281;45.114;20.730;2023-12-20T04:44:48;14.33;;;7.77;;
77168;SDS011;66281;45.114;20.730;2023-12-20T04:54:49;22.27;;;12.27;;
77168;SDS011;66281;45.114;20.730;2023-12-20T05:04:51;45.42;;;20.75;;
77168;SDS011;66281;45.114;20.730;2023-12-20T05:14:52;22.43;;;13.70;;
77168;SDS011;66281;45.114;20.730;2023-12-20T05:24:53;17.33;;;10.70;;
77168;SDS011;66281;45.114;20.730;2023-12-20T05:34:55;28.05;;;15.00;;
77168;SDS011;66281;45.114;20.730;2023-12-20T05:44:56;22.17;;;13.37;;
77168;SDS011;66281;45.114;20.730;2023-12-20T05:54:57;22.97;;;14.03;;
77168;SDS011;66281;45.114;20.730;2023-12-20T06:05:02;19.95;;;11.88;;
77168;SDS011;66281;45.114;20.730;2023-12-20T06:15:05;19.63;;;11.38;;
77168;SDS011;66281;45.114;20.730;2023-12-20T06:25:07;24.47;;;12.40;;
77168;SDS011;66281;45.114;20.730;2023-12-20T06:35:09;24.63;;;12.03;;
77168;SDS011;66281;45.114;20.730;2023-12-20T06:45:10;26.95;;;12.57;;
77168;SDS011;66281;45.114;20.730;2023-12-20T06:55:11;24.77;;;12.60;;
77168;SDS011;66281;45.114;20.730;2023-12-20T07:05:15;40.50;;;22.73;;
77168;SDS011;66281;45.114;20.730;2023-12-20T07:15:17;24.95;;;13.23;;
77168;SDS011;66281;45.114;20.730;2023-12-20T07:25:19;22.83;;;13.40;;
77168;SDS011;66281;45.114;20.730;2023-12-20T07:35:21;22.57;;;13.50;;
77168;SDS011;66281;45.114;20.730;2023-12-20T07:45:22;31.35;;;16.40;;
77168;SDS011;66281;45.114;20.730;2023-12-20T07:55:23;38.80;;;20.20;;
77168;SDS011;66281;45.114;20.730;2023-12-20T08:05:25;43.37;;;20.43;;
77168;SDS011;66281;45.114;20.730;2023-12-20T08:15:26;37.90;;;19.10;;
77168;SDS011;66281;45.114;20.730;2023-12-20T08:25:27;33.78;;;18.67;;
77168;SDS011;66281;45.114;20.730;2023-12-20T08:35:29;38.80;;;18.90;;
77168;SDS011;66281;45.114;20.730;2023-12-20T08:45:30;26.73;;;16.53;;
77168;SDS011;66281;45.114;20.730;2023-12-20T08:55:31;37.03;;;20.52;;
77168;SDS011;66281;45.114;20.730;2023-12-20T09:05:34;33.70;;;18.47;;
77168;SDS011;66281;45.114;20.730;2023-12-20T09:15:35;34.67;;;19.47;;
77168;SDS011;66281;45.114;20.730;2023-12-20T09:25:36;30.75;;;17.55;;
77168;SDS011;66281;45.114;20.730;2023-12-20T09:35:38;27.42;;;17.58;;
77168;SDS011;66281;45.114;20.730;2023-12-20T09:45:39;29.53;;;16.97;;
77168;SDS011;66281;45.114;20.730;2023-12-20T09:55:41;26.70;;;15.30;;
77168;SDS011;66281;45.114;20.730;2023-12-20T10:05:43;34.15;;;19.13;;
77168;SDS011;66281;45.114;20.730;2023-12-20T10:15:45;34.63;;;21.33;;
77168;SDS011;66281;45.114;20.730;2023-12-20T10:25:56;42.30;;;25.43;;
77168;SDS011;66281;45.114;20.730;2023-12-20T10:36:01;59.28;;;33.53;;
77168;SDS011;66281;45.114;20.730;2023-12-20T10:46:03;84.97;;;43.40;;
77168;SDS011;66281;45.114;20.730;2023-12-20T10:56:06;83.40;;;44.63;;
77168;SDS011;66281;45.114;20.730;2023-12-20T11:06:19;85.70;;;44.97;;
77168;SDS011;66281;45.114;20.730;2023-12-20T11:16:27;93.37;;;52.33;;
77168;SDS011;66281;45.114;20.730;2023-12-20T11:26:29;82.83;;;46.33;;
77168;SDS011;66281;45.114;20.730;2023-12-20T11:36:32;65.20;;;39.63;;
77168;SDS011;66281;45.114;20.730;2023-12-20T11:46:33;69.47;;;41.55;;
77168;SDS011;66281;45.114;20.730;2023-12-20T11:56:35;90.70;;;50.50;;
77168;SDS011;66281;45.114;20.730;2023-12-20T12:06:37;76.77;;;43.53;;
77168;SDS011;66281;45.114;20.730;2023-12-20T12:16:38;89.32;;;46.85;;
77168;SDS011;66281;45.114;20.730;2023-12-20T12:26:40;144.43;;;74.97;;
77168;SDS011;66281;45.114;20.730;2023-12-20T12:36:41;104.37;;;55.07;;
77168;SDS011;66281;45.114;20.730;2023-12-20T12:46:43;92.93;;;49.60;;
77168;SDS011;66281;45.114;20.730;2023-12-20T12:56:45;98.47;;;51.05;;
77168;SDS011;66281;45.114;20.730;2023-12-20T13:06:48;75.93;;;40.00;;
77168;SDS011;66281;45.114;20.730;2023-12-20T13:16:50;64.53;;;38.83;;
77168;SDS011;66281;45.114;20.730;2023-12-20T13:26:51;64.15;;;35.80;;
77168;SDS011;66281;45.114;20.730;2023-12-20T13:36:53;63.67;;;34.53;;
77168;SDS011;66281;45.114;20.730;2023-12-20T13:46:55;79.20;;;38.27;;
77168;SDS011;66281;45.114;20.730;2023-12-20T13:56:57;67.63;;;34.30;;
77168;SDS011;66281;45.114;20.730;2023-12-20T14:06:58;71.17;;;35.10;;
77168;SDS011;66281;45.114;20.730;2023-12-20T14:17:01;48.83;;;29.37;;
77168;SDS011;66281;45.114;20.730;2023-12-20T14:27:02;56.85;;;30.65;;
77168;SDS011;66281;45.114;20.730;2023-12-20T14:37:04;46.35;;;27.05;;
77168;SDS011;66281;45.114;20.730;2023-12-20T14:47:06;65.77;;;33.10;;
77168;SDS011;66281;45.114;20.730;2023-12-20T14:57:07;185.77;;;59.50;;
77168;SDS011;66281;45.114;20.730;2023-12-20T15:07:10;141.40;;;52.97;;
77168;SDS011;66281;45.114;20.730;2023-12-20T15:17:11;147.93;;;54.03;;
77168;SDS011;66281;45.114;20.730;2023-12-20T15:27:13;190.80;;;71.77;;
77168;SDS011;66281;45.114;20.730;2023-12-20T15:37:16;149.23;;;54.75;;
77168;SDS011;66281;45.114;20.730;2023-12-20T15:47:17;132.83;;;53.30;;
77168;SDS011;66281;45.114;20.730;2023-12-20T15:57:20;113.87;;;46.87;;
77168;SDS011;66281;45.114;20.730;2023-12-20T16:07:21;144.05;;;54.00;;
77168;SDS011;66281;45.114;20.730;2023-12-20T16:17:23;152.73;;;54.88;;
77168;SDS011;66281;45.114;20.730;2023-12-20T16:27:24;79.57;;;32.50;;
77168;SDS011;66281;45.114;20.730;2023-12-20T16:37:26;137.07;;;39.37;;
77168;SDS011;66281;45.114;20.730;2023-12-20T16:47:27;112.55;;;42.33;;
77168;SDS011;66281;45.114;20.730;2023-12-20T16:57:28;107.10;;;39.00;;
77168;SDS011;66281;45.114;20.730;2023-12-20T17:07:30;107.67;;;37.47;;
77168;SDS011;66281;45.114;20.730;2023-12-20T17:17:32;84.38;;;33.97;;
77168;SDS011;66281;45.114;20.730;2023-12-20T17:27:33;114.47;;;36.83;;
77168;SDS011;66281;45.114;20.730;2023-12-20T17:37:36;90.37;;;34.27;;
77168;SDS011;66281;45.114;20.730;2023-12-20T17:47:38;64.93;;;26.55;;
77168;SDS011;66281;45.114;20.730;2023-12-20T17:57:40;68.22;;;25.50;;
77168;SDS011;66281;45.114;20.730;2023-12-20T18:07:42;60.17;;;25.90;;
77168;SDS011;66281;45.114;20.730;2023-12-20T18:17:45;59.93;;;24.73;;
77168;SDS011;66281;45.114;20.730;2023-12-20T18:27:46;86.68;;;30.58;;
77168;SDS011;66281;45.114;20.730;2023-12-20T18:37:48;54.50;;;25.00;;
77168;SDS011;66281;45.114;20.730;2023-12-20T18:47:50;68.83;;;26.53;;
77168;SDS011;66281;45.114;20.730;2023-12-20T18:57:54;71.82;;;29.85;;
77168;SDS011;66281;45.114;20.730;2023-12-20T19:07:55;92.17;;;29.73;;
77168;SDS011;66281;45.114;20.730;2023-12-20T19:17:57;75.03;;;30.23;;
77168;SDS011;66281;45.114;20.730;2023-12-20T19:27:58;92.50;;;32.95;;
77168;SDS011;66281;45.114;20.730;2023-12-20T19:38:00;110.07;;;30.98;;
77168;SDS011;66281;45.114;20.730;2023-12-20T19:48:02;107.70;;;37.47;;
77168;SDS011;66281;45.114;20.730;2023-12-20T19:58:04;104.63;;;34.27;;
77168;SDS011;66281;45.114;20.730;2023-12-20T20:08:06;144.13;;;47.25;;
77168;SDS011;66281;45.114;20.730;2023-12-20T20:18:08;104.23;;;36.63;;
77168;SDS011;66281;45.114;20.730;2023-12-20T20:28:10;104.40;;;35.93;;
77168;SDS011;66281;45.114;20.730;2023-12-20T20:38:12;80.72;;;34.75;;
77168;SDS011;66281;45.114;20.730;2023-12-20T20:48:15;72.57;;;29.53;;
77168;SDS011;66281;45.114;20.730;2023-12-20T20:58:17;79.30;;;37.27;;
77168;SDS011;66281;45.114;20.730;2023-12-20T21:08:18;95.47;;;38.17;;
77168;SDS011;66281;45.114;20.730;2023-12-20T21:18:19;70.45;;;32.08;;
77168;SDS011;66281;45.114;20.730;2023-12-20T21:28:21;89.40;;;40.23;;
77168;SDS011;66281;45.114;20.730;2023-12-20T21:38:23;70.90;;;31.80;;
77168;SDS011;66281;45.114;20.730;2023-12-20T21:48:24;80.32;;;33.67;;
77168;SDS011;66281;45.114;20.730;2023-12-20T21:58:28;86.43;;;34.53;;
77168;SDS011;66281;45.114;20.730;2023-12-20T22:08:29;70.20;;;28.97;;
77168;SDS011;66281;45.114;20.730;2023-12-20T22:18:30;63.22;;;29.02;;
77168;SDS011;66281;45.114;20.730;2023-12-20T22:28:32;80.50;;;32.80;;
77168;SDS011;66281;45.114;20.730;2023-12-20T22:38:33;64.63;;;28.97;;
77168;SDS011;66281;45.114;20.730;2023-12-20T22:48:35;56.40;;;28.05;;
77168;SDS011;66281;45.114;20.730;2023-12-20T22:58:36;54.72;;;26.38;;
77168;SDS011;66281;45.114;20.730;2023-12-20T23:08:38;59.17;;;27.77;;
77168;SDS011;66281;45.114;20.730;2023-12-20T23:18:39;59.20;;;26.90;;
77168;SDS011;66281;45.114;20.730;2023-12-20T23:28:40;54.90;;;25.33;;
77168;SDS011;66281;45.114;20.730;2023-12-20T23:38:42;49.53;;;24.77;;
77168;SDS011;66281;45.114;20.730;2023-12-20T23:48:43;53.20;;;25.13;;
77168;SDS011;66281;45.114;20.730;2023-12-20T23:58:45;87.18;;;42.70;;
